sensor_id;sensor_type;location;lat;lon;timestamp;temperature;humidity
20672;DHT22;10495;50.922;4.760;2022-11-20T00:01:39;4.90;91.30
20672;DHT22;10495;50.922;4.760;2022-11-20T00:04:05;5.00;91.40
20672;DHT22;10495;50.922;4.760;2022-11-20T00:06:31;5.00;91.40
20672;DHT22;10495;50.922;4.760;2022-11-20T00:08:58;5.00;91.40
20672;DHT22;10495;50.922;4.760;2022-11-20T00:11:27;5.00;91.40
20672;DHT22;10495;50.922;4.760;2022-11-20T00:13:55;5.00;91.40
20672;DHT22;10495;50.922;4.760;2022-11-20T00:16:23;5.10;91.40
20672;DHT22;10495;50.922;4.760;2022-11-20T00:18:50;5.00;91.00
20672;DHT22;10495;50.922;4.760;2022-11-20T00:21:21;4.80;90.60
20672;DHT22;10495;50.922;4.760;2022-11-20T00:23:47;4.80;90.90
20672;DHT22;10495;50.922;4.760;2022-11-20T00:26:15;4.80;91.10
20672;DHT22;10495;50.922;4.760;2022-11-20T00:28:42;4.80;91.00
20672;DHT22;10495;50.922;4.760;2022-11-20T00:31:13;4.80;91.20
20672;DHT22;10495;50.922;4.760;2022-11-20T00:33:39;4.90;91.30
20672;DHT22;10495;50.922;4.760;2022-11-20T00:36:08;4.90;91.10
20672;DHT22;10495;50.922;4.760;2022-11-20T00:38:34;5.00;91.30
20672;DHT22;10495;50.922;4.760;2022-11-20T00:41:02;5.00;91.10
20672;DHT22;10495;50.922;4.760;2022-11-20T00:43:28;4.90;91.10
20672;DHT22;10495;50.922;4.760;2022-11-20T00:45:58;4.90;90.80
20672;DHT22;10495;50.922;4.760;2022-11-20T00:48:24;5.00;91.10
20672;DHT22;10495;50.922;4.760;2022-11-20T00:50:50;5.00;91.00
20672;DHT22;10495;50.922;4.760;2022-11-20T00:53:15;5.20;91.10
20672;DHT22;10495;50.922;4.760;2022-11-20T00:55:41;5.20;90.70
20672;DHT22;10495;50.922;4.760;2022-11-20T00:58:06;5.10;91.00
20672;DHT22;10495;50.922;4.760;2022-11-20T01:00:32;5.10;91.10
20672;DHT22;10495;50.922;4.760;2022-11-20T01:02:57;5.10;91.10
20672;DHT22;10495;50.922;4.760;2022-11-20T01:05:23;5.10;91.10
20672;DHT22;10495;50.922;4.760;2022-11-20T01:07:48;5.10;91.30
20672;DHT22;10495;50.922;4.760;2022-11-20T01:10:14;5.10;90.90
20672;DHT22;10495;50.922;4.760;2022-11-20T01:12:40;5.10;91.10
20672;DHT22;10495;50.922;4.760;2022-11-20T01:15:05;5.10;90.90
20672;DHT22;10495;50.922;4.760;2022-11-20T01:17:31;5.10;91.10
20672;DHT22;10495;50.922;4.760;2022-11-20T01:19:57;5.10;91.10
20672;DHT22;10495;50.922;4.760;2022-11-20T01:22:23;5.10;91.00
20672;DHT22;10495;50.922;4.760;2022-11-20T01:24:48;5.20;90.80
20672;DHT22;10495;50.922;4.760;2022-11-20T01:27:14;5.10;91.00
20672;DHT22;10495;50.922;4.760;2022-11-20T01:29:40;5.10;91.00
20672;DHT22;10495;50.922;4.760;2022-11-20T01:32:05;5.20;91.10
20672;DHT22;10495;50.922;4.760;2022-11-20T01:34:31;5.10;91.00
20672;DHT22;10495;50.922;4.760;2022-11-20T01:36:56;5.10;91.00
20672;DHT22;10495;50.922;4.760;2022-11-20T01:39:24;5.20;91.10
20672;DHT22;10495;50.922;4.760;2022-11-20T01:41:51;5.30;91.20
20672;DHT22;10495;50.922;4.760;2022-11-20T01:44:49;5.30;91.10
20672;DHT22;10495;50.922;4.760;2022-11-20T01:47:25;5.30;91.20
20672;DHT22;10495;50.922;4.760;2022-11-20T01:52:34;5.30;91.10
20672;DHT22;10495;50.922;4.760;2022-11-20T01:57:31;5.40;91.10
20672;DHT22;10495;50.922;4.760;2022-11-20T02:00:08;5.30;91.10
20672;DHT22;10495;50.922;4.760;2022-11-20T02:02:36;5.40;91.20
20672;DHT22;10495;50.922;4.760;2022-11-20T02:07:56;5.40;91.20
20672;DHT22;10495;50.922;4.760;2022-11-20T02:10:23;5.40;91.20
20672;DHT22;10495;50.922;4.760;2022-11-20T02:12:49;5.30;91.30
20672;DHT22;10495;50.922;4.760;2022-11-20T02:15:33;5.40;91.40
20672;DHT22;10495;50.922;4.760;2022-11-20T02:17:59;5.40;91.30
20672;DHT22;10495;50.922;4.760;2022-11-20T02:20:25;5.50;91.20
20672;DHT22;10495;50.922;4.760;2022-11-20T02:23:05;5.40;91.10
20672;DHT22;10495;50.922;4.760;2022-11-20T02:25:35;5.50;91.10
20672;DHT22;10495;50.922;4.760;2022-11-20T02:28:02;5.40;91.20
20672;DHT22;10495;50.922;4.760;2022-11-20T02:30:28;5.50;91.10
20672;DHT22;10495;50.922;4.760;2022-11-20T02:32:54;5.40;91.10
20672;DHT22;10495;50.922;4.760;2022-11-20T02:37:48;5.50;91.20
20672;DHT22;10495;50.922;4.760;2022-11-20T02:40:14;5.50;91.20
20672;DHT22;10495;50.922;4.760;2022-11-20T02:42:39;5.50;91.10
20672;DHT22;10495;50.922;4.760;2022-11-20T02:45:05;5.40;91.10
20672;DHT22;10495;50.922;4.760;2022-11-20T02:47:31;5.50;91.30
20672;DHT22;10495;50.922;4.760;2022-11-20T02:49:57;5.50;91.20
20672;DHT22;10495;50.922;4.760;2022-11-20T02:52:23;5.50;91.20
20672;DHT22;10495;50.922;4.760;2022-11-20T02:54:48;5.40;91.10
20672;DHT22;10495;50.922;4.760;2022-11-20T02:57:14;5.50;91.20
20672;DHT22;10495;50.922;4.760;2022-11-20T02:59:39;5.50;91.30
20672;DHT22;10495;50.922;4.760;2022-11-20T03:02:05;5.50;91.20
20672;DHT22;10495;50.922;4.760;2022-11-20T03:04:30;5.30;91.20
20672;DHT22;10495;50.922;4.760;2022-11-20T03:06:56;5.40;91.30
20672;DHT22;10495;50.922;4.760;2022-11-20T03:09:22;5.40;91.30
20672;DHT22;10495;50.922;4.760;2022-11-20T03:11:47;5.50;91.20
20672;DHT22;10495;50.922;4.760;2022-11-20T03:14:13;5.50;91.20
20672;DHT22;10495;50.922;4.760;2022-11-20T03:16:39;5.50;91.20
20672;DHT22;10495;50.922;4.760;2022-11-20T03:19:05;5.50;91.30
20672;DHT22;10495;50.922;4.760;2022-11-20T03:21:32;5.50;91.20
20672;DHT22;10495;50.922;4.760;2022-11-20T03:23:58;5.50;91.30
20672;DHT22;10495;50.922;4.760;2022-11-20T03:26:25;5.40;91.30
20672;DHT22;10495;50.922;4.760;2022-11-20T03:28:54;5.50;91.30
20672;DHT22;10495;50.922;4.760;2022-11-20T03:31:23;5.60;91.20
20672;DHT22;10495;50.922;4.760;2022-11-20T03:33:49;5.60;91.20
20672;DHT22;10495;50.922;4.760;2022-11-20T03:36:16;5.50;91.30
20672;DHT22;10495;50.922;4.760;2022-11-20T03:38:42;5.40;91.30
20672;DHT22;10495;50.922;4.760;2022-11-20T03:41:12;5.50;91.30
20672;DHT22;10495;50.922;4.760;2022-11-20T03:43:39;5.60;91.20
20672;DHT22;10495;50.922;4.760;2022-11-20T03:46:05;5.50;91.30
20672;DHT22;10495;50.922;4.760;2022-11-20T03:48:31;5.50;91.30
20672;DHT22;10495;50.922;4.760;2022-11-20T03:53:38;5.60;91.30
20672;DHT22;10495;50.922;4.760;2022-11-20T03:56:04;5.60;91.20
20672;DHT22;10495;50.922;4.760;2022-11-20T03:58:30;5.70;91.10
20672;DHT22;10495;50.922;4.760;2022-11-20T04:00:55;5.60;91.10
20672;DHT22;10495;50.922;4.760;2022-11-20T04:03:21;5.60;91.00
20672;DHT22;10495;50.922;4.760;2022-11-20T04:05:46;5.50;91.20
20672;DHT22;10495;50.922;4.760;2022-11-20T04:08:12;5.50;91.20
20672;DHT22;10495;50.922;4.760;2022-11-20T04:10:38;5.40;91.00
20672;DHT22;10495;50.922;4.760;2022-11-20T04:13:03;5.50;91.20
20672;DHT22;10495;50.922;4.760;2022-11-20T04:15:29;5.50;91.50
20672;DHT22;10495;50.922;4.760;2022-11-20T04:17:54;5.50;91.30
20672;DHT22;10495;50.922;4.760;2022-11-20T04:20:20;5.50;91.40
20672;DHT22;10495;50.922;4.760;2022-11-20T04:22:46;5.50;91.10
20672;DHT22;10495;50.922;4.760;2022-11-20T04:25:12;5.40;91.30
20672;DHT22;10495;50.922;4.760;2022-11-20T04:27:37;5.50;91.40
20672;DHT22;10495;50.922;4.760;2022-11-20T04:30:04;5.60;91.30
20672;DHT22;10495;50.922;4.760;2022-11-20T04:32:29;5.50;91.40
20672;DHT22;10495;50.922;4.760;2022-11-20T04:34:55;5.50;91.40
20672;DHT22;10495;50.922;4.760;2022-11-20T04:37:20;5.50;91.30
20672;DHT22;10495;50.922;4.760;2022-11-20T04:39:46;5.50;91.30
20672;DHT22;10495;50.922;4.760;2022-11-20T04:42:11;5.50;91.30
20672;DHT22;10495;50.922;4.760;2022-11-20T04:44:56;5.50;91.40
20672;DHT22;10495;50.922;4.760;2022-11-20T04:47:22;5.50;91.40
20672;DHT22;10495;50.922;4.760;2022-11-20T04:49:47;5.60;91.40
20672;DHT22;10495;50.922;4.760;2022-11-20T04:52:13;5.50;91.30
20672;DHT22;10495;50.922;4.760;2022-11-20T04:54:39;5.50;91.40
20672;DHT22;10495;50.922;4.760;2022-11-20T04:57:04;5.40;91.40
20672;DHT22;10495;50.922;4.760;2022-11-20T04:59:30;5.40;91.50
20672;DHT22;10495;50.922;4.760;2022-11-20T05:01:56;5.50;91.60
20672;DHT22;10495;50.922;4.760;2022-11-20T05:04:21;5.50;91.60
20672;DHT22;10495;50.922;4.760;2022-11-20T05:06:47;5.50;91.50
20672;DHT22;10495;50.922;4.760;2022-11-20T05:09:12;5.50;91.40
20672;DHT22;10495;50.922;4.760;2022-11-20T05:11:38;5.50;91.30
20672;DHT22;10495;50.922;4.760;2022-11-20T05:14:04;5.50;91.40
20672;DHT22;10495;50.922;4.760;2022-11-20T05:16:29;5.50;91.30
20672;DHT22;10495;50.922;4.760;2022-11-20T05:18:55;5.50;91.20
20672;DHT22;10495;50.922;4.760;2022-11-20T05:21:21;5.40;91.20
20672;DHT22;10495;50.922;4.760;2022-11-20T05:23:47;5.40;91.30
20672;DHT22;10495;50.922;4.760;2022-11-20T05:26:15;5.30;91.30
20672;DHT22;10495;50.922;4.760;2022-11-20T05:28:41;5.40;91.40
20672;DHT22;10495;50.922;4.760;2022-11-20T05:31:09;5.40;91.30
20672;DHT22;10495;50.922;4.760;2022-11-20T05:33:35;5.40;91.50
20672;DHT22;10495;50.922;4.760;2022-11-20T05:36:03;5.40;91.40
20672;DHT22;10495;50.922;4.760;2022-11-20T05:38:29;5.50;91.30
20672;DHT22;10495;50.922;4.760;2022-11-20T05:40:54;5.40;91.20
20672;DHT22;10495;50.922;4.760;2022-11-20T05:43:20;5.40;91.30
20672;DHT22;10495;50.922;4.760;2022-11-20T05:45:53;5.40;91.20
20672;DHT22;10495;50.922;4.760;2022-11-20T05:48:19;5.30;91.40
20672;DHT22;10495;50.922;4.760;2022-11-20T05:50:44;5.40;91.40
20672;DHT22;10495;50.922;4.760;2022-11-20T05:53:10;5.30;91.40
20672;DHT22;10495;50.922;4.760;2022-11-20T05:55:35;5.40;91.40
20672;DHT22;10495;50.922;4.760;2022-11-20T05:58:01;5.40;91.40
20672;DHT22;10495;50.922;4.760;2022-11-20T06:00:27;5.50;91.20
20672;DHT22;10495;50.922;4.760;2022-11-20T06:02:52;5.70;91.00
20672;DHT22;10495;50.922;4.760;2022-11-20T06:05:18;5.90;90.50
20672;DHT22;10495;50.922;4.760;2022-11-20T06:07:43;5.80;90.50
20672;DHT22;10495;50.922;4.760;2022-11-20T06:10:09;6.00;90.00
20672;DHT22;10495;50.922;4.760;2022-11-20T06:12:35;6.10;89.40
20672;DHT22;10495;50.922;4.760;2022-11-20T06:15:00;6.20;88.90
20672;DHT22;10495;50.922;4.760;2022-11-20T06:17:26;6.20;88.80
20672;DHT22;10495;50.922;4.760;2022-11-20T06:19:52;5.90;89.30
20672;DHT22;10495;50.922;4.760;2022-11-20T06:22:17;5.60;90.30
20672;DHT22;10495;50.922;4.760;2022-11-20T06:24:43;5.50;90.70
20672;DHT22;10495;50.922;4.760;2022-11-20T06:27:08;5.30;91.00
20672;DHT22;10495;50.922;4.760;2022-11-20T06:29:34;5.30;91.20
20672;DHT22;10495;50.922;4.760;2022-11-20T06:32:00;5.30;91.20
20672;DHT22;10495;50.922;4.760;2022-11-20T06:34:26;5.30;91.30
20672;DHT22;10495;50.922;4.760;2022-11-20T06:36:51;5.30;91.30
20672;DHT22;10495;50.922;4.760;2022-11-20T06:39:17;5.60;91.10
20672;DHT22;10495;50.922;4.760;2022-11-20T06:41:42;5.50;91.00
20672;DHT22;10495;50.922;4.760;2022-11-20T06:44:08;5.50;91.10
20672;DHT22;10495;50.922;4.760;2022-11-20T06:46:34;5.50;91.30
20672;DHT22;10495;50.922;4.760;2022-11-20T06:48:59;5.40;91.40
20672;DHT22;10495;50.922;4.760;2022-11-20T06:51:25;5.30;91.50
20672;DHT22;10495;50.922;4.760;2022-11-20T06:53:50;5.40;91.60
20672;DHT22;10495;50.922;4.760;2022-11-20T06:56:16;5.40;91.50
20672;DHT22;10495;50.922;4.760;2022-11-20T06:58:41;5.50;91.50
20672;DHT22;10495;50.922;4.760;2022-11-20T07:01:10;5.80;91.10
20672;DHT22;10495;50.922;4.760;2022-11-20T07:03:37;5.90;90.90
20672;DHT22;10495;50.922;4.760;2022-11-20T07:06:03;6.10;90.30
20672;DHT22;10495;50.922;4.760;2022-11-20T07:08:30;5.90;90.60
20672;DHT22;10495;50.922;4.760;2022-11-20T07:11:03;5.90;90.60
20672;DHT22;10495;50.922;4.760;2022-11-20T07:13:30;5.70;90.90
20672;DHT22;10495;50.922;4.760;2022-11-20T07:16:03;5.60;91.30
20672;DHT22;10495;50.922;4.760;2022-11-20T07:18:29;5.60;91.50
20672;DHT22;10495;50.922;4.760;2022-11-20T07:20:54;5.80;91.50
20672;DHT22;10495;50.922;4.760;2022-11-20T07:23:20;5.80;91.30
20672;DHT22;10495;50.922;4.760;2022-11-20T07:25:45;5.70;91.30
20672;DHT22;10495;50.922;4.760;2022-11-20T07:28:11;5.80;91.40
20672;DHT22;10495;50.922;4.760;2022-11-20T07:30:37;5.90;91.30
20672;DHT22;10495;50.922;4.760;2022-11-20T07:33:03;5.80;91.30
20672;DHT22;10495;50.922;4.760;2022-11-20T07:35:28;5.80;91.30
20672;DHT22;10495;50.922;4.760;2022-11-20T07:37:54;5.80;91.30
20672;DHT22;10495;50.922;4.760;2022-11-20T07:40:19;5.80;91.40
20672;DHT22;10495;50.922;4.760;2022-11-20T07:42:52;5.80;91.60
20672;DHT22;10495;50.922;4.760;2022-11-20T07:45:19;5.80;91.60
20672;DHT22;10495;50.922;4.760;2022-11-20T07:47:45;5.90;91.60
20672;DHT22;10495;50.922;4.760;2022-11-20T07:50:12;6.00;91.50
20672;DHT22;10495;50.922;4.760;2022-11-20T07:52:38;6.00;91.50
20672;DHT22;10495;50.922;4.760;2022-11-20T07:55:04;6.00;91.60
20672;DHT22;10495;50.922;4.760;2022-11-20T07:57:30;6.00;91.60
20672;DHT22;10495;50.922;4.760;2022-11-20T07:59:56;6.00;91.70
20672;DHT22;10495;50.922;4.760;2022-11-20T08:02:21;6.10;91.70
20672;DHT22;10495;50.922;4.760;2022-11-20T08:04:47;6.30;91.60
20672;DHT22;10495;50.922;4.760;2022-11-20T08:07:12;6.30;91.50
20672;DHT22;10495;50.922;4.760;2022-11-20T08:09:38;6.30;91.60
20672;DHT22;10495;50.922;4.760;2022-11-20T08:12:04;6.30;91.90
20672;DHT22;10495;50.922;4.760;2022-11-20T08:14:48;6.50;91.30
20672;DHT22;10495;50.922;4.760;2022-11-20T08:17:13;6.80;90.70
20672;DHT22;10495;50.922;4.760;2022-11-20T08:19:39;6.80;90.60
20672;DHT22;10495;50.922;4.760;2022-11-20T08:22:04;6.80;90.60
20672;DHT22;10495;50.922;4.760;2022-11-20T08:24:30;6.70;90.80
20672;DHT22;10495;50.922;4.760;2022-11-20T08:26:58;6.60;91.10
20672;DHT22;10495;50.922;4.760;2022-11-20T08:29:25;6.60;91.60
20672;DHT22;10495;50.922;4.760;2022-11-20T08:31:51;6.80;91.10
20672;DHT22;10495;50.922;4.760;2022-11-20T08:34:16;6.80;91.10
20672;DHT22;10495;50.922;4.760;2022-11-20T08:36:42;6.90;91.10
20672;DHT22;10495;50.922;4.760;2022-11-20T08:39:07;7.10;90.90
20672;DHT22;10495;50.922;4.760;2022-11-20T08:41:33;7.10;90.50
20672;DHT22;10495;50.922;4.760;2022-11-20T08:44:00;7.20;90.60
20672;DHT22;10495;50.922;4.760;2022-11-20T08:46:38;7.00;90.70
20672;DHT22;10495;50.922;4.760;2022-11-20T08:49:05;7.30;90.30
20672;DHT22;10495;50.922;4.760;2022-11-20T08:51:31;7.40;90.20
20672;DHT22;10495;50.922;4.760;2022-11-20T08:53:57;7.60;89.50
20672;DHT22;10495;50.922;4.760;2022-11-20T08:56:22;7.80;89.10
20672;DHT22;10495;50.922;4.760;2022-11-20T08:58:50;7.40;90.00
20672;DHT22;10495;50.922;4.760;2022-11-20T09:01:16;7.40;90.30
20672;DHT22;10495;50.922;4.760;2022-11-20T09:03:42;7.10;90.80
20672;DHT22;10495;50.922;4.760;2022-11-20T09:06:07;7.10;91.10
20672;DHT22;10495;50.922;4.760;2022-11-20T09:08:33;7.20;91.30
20672;DHT22;10495;50.922;4.760;2022-11-20T09:11:00;7.50;90.90
20672;DHT22;10495;50.922;4.760;2022-11-20T09:13:27;7.60;90.60
20672;DHT22;10495;50.922;4.760;2022-11-20T09:15:58;7.70;90.40
20672;DHT22;10495;50.922;4.760;2022-11-20T09:18:24;7.60;90.30
20672;DHT22;10495;50.922;4.760;2022-11-20T09:20:51;7.60;90.60
20672;DHT22;10495;50.922;4.760;2022-11-20T09:23:16;7.40;91.00
20672;DHT22;10495;50.922;4.760;2022-11-20T09:25:43;7.30;91.30
20672;DHT22;10495;50.922;4.760;2022-11-20T09:28:08;7.30;91.50
20672;DHT22;10495;50.922;4.760;2022-11-20T09:30:34;7.50;91.50
20672;DHT22;10495;50.922;4.760;2022-11-20T09:33:00;7.70;91.10
20672;DHT22;10495;50.922;4.760;2022-11-20T09:35:26;7.70;91.20
20672;DHT22;10495;50.922;4.760;2022-11-20T09:37:52;7.80;91.20
20672;DHT22;10495;50.922;4.760;2022-11-20T09:40:21;7.70;91.10
20672;DHT22;10495;50.922;4.760;2022-11-20T09:48:47;7.80;91.50
20672;DHT22;10495;50.922;4.760;2022-11-20T09:51:39;8.10;91.20
20672;DHT22;10495;50.922;4.760;2022-11-20T09:54:20;8.40;90.60
20672;DHT22;10495;50.922;4.760;2022-11-20T09:56:54;8.30;90.70
20672;DHT22;10495;50.922;4.760;2022-11-20T09:59:36;8.30;91.10
20672;DHT22;10495;50.922;4.760;2022-11-20T10:02:15;8.10;91.30
20672;DHT22;10495;50.922;4.760;2022-11-20T10:04:47;8.10;91.50
20672;DHT22;10495;50.922;4.760;2022-11-20T10:10:34;8.40;91.60
20672;DHT22;10495;50.922;4.760;2022-11-20T10:16:13;8.40;91.80
20672;DHT22;10495;50.922;4.760;2022-11-20T10:29:47;8.70;91.70
20672;DHT22;10495;50.922;4.760;2022-11-20T10:32:25;8.70;92.00
20672;DHT22;10495;50.922;4.760;2022-11-20T10:35:01;8.70;92.10
20672;DHT22;10495;50.922;4.760;2022-11-20T10:37:31;8.70;92.10
20672;DHT22;10495;50.922;4.760;2022-11-20T10:40:04;8.80;92.20
20672;DHT22;10495;50.922;4.760;2022-11-20T10:42:56;9.00;92.20
20672;DHT22;10495;50.922;4.760;2022-11-20T10:47:54;9.20;91.90
20672;DHT22;10495;50.922;4.760;2022-11-20T10:50:22;9.60;90.90
20672;DHT22;10495;50.922;4.760;2022-11-20T10:55:46;9.70;90.60
20672;DHT22;10495;50.922;4.760;2022-11-20T11:01:19;9.60;91.20
20672;DHT22;10495;50.922;4.760;2022-11-20T11:03:49;9.50;91.40
20672;DHT22;10495;50.922;4.760;2022-11-20T11:06:40;9.60;91.20
20672;DHT22;10495;50.922;4.760;2022-11-20T11:09:15;9.80;91.10
20672;DHT22;10495;50.922;4.760;2022-11-20T11:11:41;9.60;91.40
20672;DHT22;10495;50.922;4.760;2022-11-20T11:14:11;9.50;91.50
20672;DHT22;10495;50.922;4.760;2022-11-20T11:16:56;9.40;91.80
20672;DHT22;10495;50.922;4.760;2022-11-20T11:19:22;9.40;92.00
20672;DHT22;10495;50.922;4.760;2022-11-20T11:21:56;9.60;92.10
20672;DHT22;10495;50.922;4.760;2022-11-20T11:24:25;9.90;91.90
20672;DHT22;10495;50.922;4.760;2022-11-20T11:27:03;10.00;91.30
20672;DHT22;10495;50.922;4.760;2022-11-20T11:29:30;10.10;91.50
20672;DHT22;10495;50.922;4.760;2022-11-20T11:32:08;10.20;91.50
20672;DHT22;10495;50.922;4.760;2022-11-20T11:34:34;10.20;91.30
20672;DHT22;10495;50.922;4.760;2022-11-20T11:37:01;10.20;91.40
20672;DHT22;10495;50.922;4.760;2022-11-20T11:39:29;10.40;91.20
20672;DHT22;10495;50.922;4.760;2022-11-20T11:41:57;10.40;91.10
20672;DHT22;10495;50.922;4.760;2022-11-20T11:44:28;10.40;91.10
20672;DHT22;10495;50.922;4.760;2022-11-20T11:49:45;10.30;90.90
20672;DHT22;10495;50.922;4.760;2022-11-20T11:52:20;10.40;90.90
20672;DHT22;10495;50.922;4.760;2022-11-20T11:55:01;10.30;90.50
20672;DHT22;10495;50.922;4.760;2022-11-20T11:57:40;10.40;90.70
20672;DHT22;10495;50.922;4.760;2022-11-20T12:00:16;10.50;90.00
20672;DHT22;10495;50.922;4.760;2022-11-20T12:05:44;10.20;90.60
20672;DHT22;10495;50.922;4.760;2022-11-20T12:08:19;10.00;90.80
20672;DHT22;10495;50.922;4.760;2022-11-20T12:16:00;10.20;90.80
20672;DHT22;10495;50.922;4.760;2022-11-20T12:18:27;10.20;90.50
20672;DHT22;10495;50.922;4.760;2022-11-20T12:26:21;10.30;90.50
20672;DHT22;10495;50.922;4.760;2022-11-20T12:37:20;10.20;90.40
20672;DHT22;10495;50.922;4.760;2022-11-20T12:39:49;10.10;90.20
20672;DHT22;10495;50.922;4.760;2022-11-20T12:42:33;10.10;90.50
20672;DHT22;10495;50.922;4.760;2022-11-20T12:48:08;10.30;90.30
20672;DHT22;10495;50.922;4.760;2022-11-20T13:01:45;9.90;90.40
20672;DHT22;10495;50.922;4.760;2022-11-20T13:07:05;9.90;90.50
20672;DHT22;10495;50.922;4.760;2022-11-20T13:09:33;9.80;90.60
20672;DHT22;10495;50.922;4.760;2022-11-20T13:12:14;10.10;90.20
20672;DHT22;10495;50.922;4.760;2022-11-20T13:17:59;9.90;90.20
20672;DHT22;10495;50.922;4.760;2022-11-20T13:20:26;9.80;90.50
20672;DHT22;10495;50.922;4.760;2022-11-20T13:22:54;9.70;90.70
20672;DHT22;10495;50.922;4.760;2022-11-20T13:25:27;9.70;90.70
20672;DHT22;10495;50.922;4.760;2022-11-20T13:27:54;9.70;90.90
20672;DHT22;10495;50.922;4.760;2022-11-20T13:30:25;9.70;90.90
20672;DHT22;10495;50.922;4.760;2022-11-20T13:35:41;10.00;90.30
20672;DHT22;10495;50.922;4.760;2022-11-20T13:38:12;10.00;90.30
20672;DHT22;10495;50.922;4.760;2022-11-20T13:40:55;10.00;90.00
20672;DHT22;10495;50.922;4.760;2022-11-20T13:43:28;10.30;89.20
20672;DHT22;10495;50.922;4.760;2022-11-20T13:46:08;10.10;89.90
20672;DHT22;10495;50.922;4.760;2022-11-20T13:48:40;10.20;89.80
20672;DHT22;10495;50.922;4.760;2022-11-20T13:51:41;9.90;90.20
20672;DHT22;10495;50.922;4.760;2022-11-20T14:00:22;9.80;90.40
20672;DHT22;10495;50.922;4.760;2022-11-20T14:03:01;9.60;90.80
20672;DHT22;10495;50.922;4.760;2022-11-20T14:05:37;9.60;91.10
20672;DHT22;10495;50.922;4.760;2022-11-20T14:08:06;9.60;91.00
20672;DHT22;10495;50.922;4.760;2022-11-20T14:10:32;9.90;90.70
20672;DHT22;10495;50.922;4.760;2022-11-20T14:12:58;9.60;91.50
20672;DHT22;10495;50.922;4.760;2022-11-20T14:15:32;9.60;91.20
20672;DHT22;10495;50.922;4.760;2022-11-20T14:17:58;9.60;91.10
20672;DHT22;10495;50.922;4.760;2022-11-20T14:20:27;9.60;91.10
20672;DHT22;10495;50.922;4.760;2022-11-20T14:22:55;9.60;91.40
20672;DHT22;10495;50.922;4.760;2022-11-20T14:25:23;9.40;91.70
20672;DHT22;10495;50.922;4.760;2022-11-20T14:27:54;9.30;91.90
20672;DHT22;10495;50.922;4.760;2022-11-20T14:30:28;9.60;91.80
20672;DHT22;10495;50.922;4.760;2022-11-20T14:33:02;9.50;91.80
20672;DHT22;10495;50.922;4.760;2022-11-20T14:35:31;9.40;91.90
20672;DHT22;10495;50.922;4.760;2022-11-20T14:38:01;9.30;92.30
20672;DHT22;10495;50.922;4.760;2022-11-20T14:40:33;9.30;92.30
20672;DHT22;10495;50.922;4.760;2022-11-20T14:43:01;9.40;92.20
20672;DHT22;10495;50.922;4.760;2022-11-20T14:45:27;9.50;92.00
20672;DHT22;10495;50.922;4.760;2022-11-20T14:47:55;9.40;92.10
20672;DHT22;10495;50.922;4.760;2022-11-20T14:50:27;9.50;91.90
20672;DHT22;10495;50.922;4.760;2022-11-20T14:52:58;9.50;91.80
20672;DHT22;10495;50.922;4.760;2022-11-20T14:55:29;9.50;91.90
20672;DHT22;10495;50.922;4.760;2022-11-20T14:57:57;9.50;91.80
20672;DHT22;10495;50.922;4.760;2022-11-20T15:00:23;9.40;92.10
20672;DHT22;10495;50.922;4.760;2022-11-20T15:02:51;9.40;92.20
20672;DHT22;10495;50.922;4.760;2022-11-20T15:05:19;9.40;92.20
20672;DHT22;10495;50.922;4.760;2022-11-20T15:07:48;9.40;92.20
20672;DHT22;10495;50.922;4.760;2022-11-20T15:10:24;9.50;91.90
20672;DHT22;10495;50.922;4.760;2022-11-20T15:12:52;9.60;91.90
20672;DHT22;10495;50.922;4.760;2022-11-20T15:15:24;9.40;92.30
20672;DHT22;10495;50.922;4.760;2022-11-20T15:17:50;9.30;92.60
20672;DHT22;10495;50.922;4.760;2022-11-20T15:20:17;9.40;92.60
20672;DHT22;10495;50.922;4.760;2022-11-20T15:22:43;9.40;92.30
20672;DHT22;10495;50.922;4.760;2022-11-20T15:25:16;9.40;92.60
20672;DHT22;10495;50.922;4.760;2022-11-20T15:27:43;9.30;92.80
20672;DHT22;10495;50.922;4.760;2022-11-20T15:30:15;9.30;93.00
20672;DHT22;10495;50.922;4.760;2022-11-20T15:32:42;9.60;92.40
20672;DHT22;10495;50.922;4.760;2022-11-20T15:35:08;9.50;92.40
20672;DHT22;10495;50.922;4.760;2022-11-20T15:37:35;9.60;92.30
20672;DHT22;10495;50.922;4.760;2022-11-20T15:40:00;9.60;92.50
20672;DHT22;10495;50.922;4.760;2022-11-20T15:42:26;9.70;92.50
20672;DHT22;10495;50.922;4.760;2022-11-20T15:44:51;9.70;92.50
20672;DHT22;10495;50.922;4.760;2022-11-20T15:47:18;9.90;92.10
20672;DHT22;10495;50.922;4.760;2022-11-20T15:49:44;10.00;91.80
20672;DHT22;10495;50.922;4.760;2022-11-20T15:52:10;10.00;91.70
20672;DHT22;10495;50.922;4.760;2022-11-20T15:54:36;9.80;92.10
20672;DHT22;10495;50.922;4.760;2022-11-20T15:57:01;9.90;91.90
20672;DHT22;10495;50.922;4.760;2022-11-20T15:59:28;10.10;91.80
20672;DHT22;10495;50.922;4.760;2022-11-20T16:01:53;10.20;91.80
20672;DHT22;10495;50.922;4.760;2022-11-20T16:04:19;10.20;91.70
20672;DHT22;10495;50.922;4.760;2022-11-20T16:06:44;10.20;91.70
20672;DHT22;10495;50.922;4.760;2022-11-20T16:09:10;10.30;91.40
20672;DHT22;10495;50.922;4.760;2022-11-20T16:11:36;10.30;91.50
20672;DHT22;10495;50.922;4.760;2022-11-20T16:14:03;10.20;91.50
20672;DHT22;10495;50.922;4.760;2022-11-20T16:16:47;10.30;91.60
20672;DHT22;10495;50.922;4.760;2022-11-20T16:19:13;10.30;91.20
20672;DHT22;10495;50.922;4.760;2022-11-20T16:21:40;10.50;91.10
20672;DHT22;10495;50.922;4.760;2022-11-20T16:24:08;10.40;91.00
20672;DHT22;10495;50.922;4.760;2022-11-20T16:26:34;10.40;91.00
20672;DHT22;10495;50.922;4.760;2022-11-20T16:29:01;10.40;90.90
20672;DHT22;10495;50.922;4.760;2022-11-20T16:31:28;10.40;91.00
20672;DHT22;10495;50.922;4.760;2022-11-20T16:33:59;10.40;90.90
20672;DHT22;10495;50.922;4.760;2022-11-20T16:36:26;10.20;91.10
20672;DHT22;10495;50.922;4.760;2022-11-20T16:38:58;10.30;91.40
20672;DHT22;10495;50.922;4.760;2022-11-20T16:41:25;10.30;91.00
20672;DHT22;10495;50.922;4.760;2022-11-20T16:43:53;10.40;90.90
20672;DHT22;10495;50.922;4.760;2022-11-20T16:46:21;10.40;90.60
20672;DHT22;10495;50.922;4.760;2022-11-20T16:48:54;10.30;90.80
20672;DHT22;10495;50.922;4.760;2022-11-20T16:51:21;10.30;90.80
20672;DHT22;10495;50.922;4.760;2022-11-20T16:53:46;10.40;90.70
20672;DHT22;10495;50.922;4.760;2022-11-20T16:56:14;10.20;90.60
20672;DHT22;10495;50.922;4.760;2022-11-20T16:58:47;10.10;90.60
20672;DHT22;10495;50.922;4.760;2022-11-20T17:01:15;10.30;90.80
20672;DHT22;10495;50.922;4.760;2022-11-20T17:03:43;10.40;90.60
20672;DHT22;10495;50.922;4.760;2022-11-20T17:06:18;10.50;90.50
20672;DHT22;10495;50.922;4.760;2022-11-20T17:08:44;10.50;90.30
20672;DHT22;10495;50.922;4.760;2022-11-20T17:11:12;10.60;90.20
20672;DHT22;10495;50.922;4.760;2022-11-20T17:13:38;10.60;90.20
20672;DHT22;10495;50.922;4.760;2022-11-20T17:16:07;10.60;90.30
20672;DHT22;10495;50.922;4.760;2022-11-20T17:18:33;10.40;90.40
20672;DHT22;10495;50.922;4.760;2022-11-20T17:20:59;10.50;90.60
20672;DHT22;10495;50.922;4.760;2022-11-20T17:23:36;10.60;90.30
20672;DHT22;10495;50.922;4.760;2022-11-20T17:26:03;10.40;90.40
20672;DHT22;10495;50.922;4.760;2022-11-20T17:28:29;10.50;90.10